createdAt,value
2023-03-04T00:00:07.561Z,67.65
2023-03-04T00:02:36.760Z,67.46
2023-03-04T00:05:03.721Z,68.37
2023-03-04T00:07:30.192Z,68.94
2023-03-04T00:09:57.830Z,68.68
2023-03-04T00:12:24.279Z,67.79
2023-03-04T00:14:51.477Z,67.11
2023-03-04T00:17:18.276Z,68.04
2023-03-04T00:19:44.689Z,68.81
2023-03-04T00:22:11.170Z,68.93
2023-03-04T00:24:37.620Z,69.14
2023-03-04T00:27:04.218Z,68.47
2023-03-04T00:29:31.639Z,69.27
2023-03-04T00:31:58.323Z,69.25
2023-03-04T00:34:25.652Z,69.80
2023-03-04T00:36:52.060Z,69.21
2023-03-04T00:39:18.524Z,71.10
2023-03-04T00:41:44.976Z,71.73
2023-03-04T00:44:12.224Z,71.13
2023-03-04T00:46:38.672Z,71.50
2023-03-04T00:49:05.113Z,71.57
2023-03-04T00:51:31.521Z,71.53
2023-03-04T00:54:00.692Z,70.93
2023-03-04T00:56:27.464Z,72.25
2023-03-04T00:58:54.608Z,70.36
2023-03-04T01:01:21.443Z,69.85
2023-03-04T01:03:47.877Z,70.28
2023-03-04T01:06:14.580Z,71.57
2023-03-04T01:08:41.167Z,71.08
2023-03-04T01:11:08.104Z,72.17
2023-03-04T01:13:34.644Z,72.02
2023-03-04T01:16:01.643Z,71.78
2023-03-04T01:18:28.072Z,72.20
2023-03-04T01:20:54.717Z,71.70
2023-03-04T01:23:21.288Z,71.96
2023-03-04T01:25:48.092Z,71.49
2023-03-04T01:28:14.622Z,72.04
2023-03-04T01:30:41.131Z,70.97
2023-03-04T01:33:07.587Z,70.59
2023-03-04T01:35:35.557Z,70.46
2023-03-04T01:38:02.033Z,69.22
2023-03-04T01:40:28.550Z,69.83
2023-03-04T01:42:55.094Z,68.13
2023-03-04T01:45:21.620Z,68.38
2023-03-04T01:47:49.886Z,70.05
2023-03-04T01:50:30.031Z,70.53
2023-03-04T01:52:56.567Z,70.49
2023-03-04T01:55:24.011Z,69.01
2023-03-04T01:57:52.381Z,69.05
2023-03-04T02:00:23.197Z,68.94
2023-03-04T02:02:52.681Z,69.89
2023-03-04T02:05:19.572Z,71.72
2023-03-04T02:07:46.080Z,71.30
2023-03-04T02:10:13.131Z,70.57
2023-03-04T02:12:40.381Z,70.73
2023-03-04T02:15:08.108Z,70.42
2023-03-04T02:17:34.846Z,69.12
2023-03-04T02:20:29.695Z,69.04
2023-03-04T02:23:18.533Z,68.84
2023-03-04T02:25:55.202Z,70.21
2023-03-04T02:28:21.880Z,69.39
2023-03-04T02:30:48.384Z,69.77
2023-03-04T02:33:17.722Z,69.63
2023-03-04T02:35:45.088Z,70.80
2023-03-04T02:38:12.476Z,69.97
2023-03-04T02:40:42.265Z,69.55
2023-03-04T02:43:11.738Z,69.29
2023-03-04T02:45:44.651Z,69.96
2023-03-04T02:48:12.898Z,69.37
2023-03-04T02:50:48.737Z,70.65
2023-03-04T02:53:15.928Z,71.48
2023-03-04T02:55:43.748Z,71.25
2023-03-04T02:58:12.089Z,69.88
2023-03-04T03:00:39.864Z,70.43
2023-03-04T03:03:07.633Z,70.54
2023-03-04T03:05:37.142Z,70.08
2023-03-04T03:08:04.215Z,69.86
2023-03-04T03:10:31.850Z,69.48
2023-03-04T03:12:58.304Z,68.74
2023-03-04T03:15:25.086Z,68.85
2023-03-04T03:17:51.607Z,68.46
2023-03-04T03:20:18.866Z,68.01
2023-03-04T03:22:47.046Z,68.77
2023-03-04T03:25:16.354Z,68.48
2023-03-04T03:27:43.121Z,69.70
2023-03-04T03:30:14.196Z,70.32
2023-03-04T03:32:40.858Z,69.18
2023-03-04T03:35:07.949Z,69.05
2023-03-04T03:37:34.499Z,69.84
2023-03-04T03:40:01.114Z,69.07
2023-03-04T03:42:27.613Z,71.30
2023-03-04T03:44:54.044Z,71.36
2023-03-04T03:47:20.517Z,71.57
2023-03-04T03:49:46.974Z,72.09
2023-03-04T03:52:13.977Z,71.89
2023-03-04T03:54:40.468Z,72.06
2023-03-04T03:57:06.848Z,70.48
2023-03-04T03:59:33.263Z,69.97
2023-03-04T04:01:59.876Z,70.94
2023-03-04T04:04:26.612Z,69.67
2023-03-04T04:06:53.096Z,69.07
2023-03-04T04:09:19.850Z,69.27
2023-03-04T04:11:46.364Z,68.95
2023-03-04T04:14:14.169Z,69.32
2023-03-04T04:16:41.220Z,68.49
2023-03-04T04:19:07.838Z,68.32
2023-03-04T04:21:34.250Z,69.29
2023-03-04T04:24:00.729Z,68.27
2023-03-04T04:26:27.145Z,67.75
2023-03-04T04:28:53.649Z,67.08
2023-03-04T04:31:20.857Z,67.24
2023-03-04T04:33:47.342Z,68.42
2023-03-04T04:36:16.023Z,68.37
2023-03-04T04:38:42.565Z,68.67
2023-03-04T04:41:40.645Z,68.43
2023-03-04T04:44:07.418Z,68.64
2023-03-04T04:46:34.024Z,68.56
2023-03-04T04:49:01.422Z,68.89
2023-03-04T04:51:28.294Z,68.22
2023-03-04T04:53:55.584Z,67.81
2023-03-04T04:56:26.155Z,68.06
2023-03-04T04:58:55.963Z,67.41
2023-03-04T05:01:22.934Z,67.49
2023-03-04T05:03:50.584Z,67.47
2023-03-04T05:06:17.086Z,67.28
2023-03-04T05:08:43.834Z,67.20
2023-03-04T05:11:10.381Z,68.50
2023-03-04T05:13:36.917Z,68.92
2023-03-04T05:16:03.801Z,69.19
2023-03-04T05:18:30.463Z,70.03
2023-03-04T05:21:00.282Z,70.81
2023-03-04T05:23:32.159Z,71.31
2023-03-04T05:25:58.697Z,70.45
2023-03-04T05:28:25.136Z,70.77
2023-03-04T05:30:51.668Z,70.21
2023-03-04T05:33:18.849Z,70.45
2023-03-04T05:35:46.593Z,70.33
2023-03-04T05:38:15.553Z,69.78
2023-03-04T05:40:42.793Z,69.79
2023-03-04T05:43:09.977Z,70.26
2023-03-04T05:45:37.828Z,70.28
2023-03-04T05:48:04.800Z,70.31
2023-03-04T05:50:31.850Z,70.66
2023-03-04T05:52:58.568Z,70.42
2023-03-04T05:55:25.543Z,70.19
2023-03-04T05:57:52.092Z,70.68
2023-03-04T06:00:19.437Z,70.94
2023-03-04T06:02:45.948Z,70.70
2023-03-04T06:05:14.704Z,70.95
2023-03-04T06:07:43.232Z,71.04
2023-03-04T06:10:11.704Z,71.61
2023-03-04T06:12:38.352Z,71.42
2023-03-04T06:15:06.077Z,72.27
2023-03-04T06:17:33.255Z,72.19
2023-03-04T06:19:59.687Z,72.20
2023-03-04T06:22:26.225Z,72.59
2023-03-04T06:24:53.058Z,72.38
2023-03-04T06:27:19.481Z,72.73
2023-03-04T06:29:45.996Z,72.71
2023-03-04T06:32:12.489Z,73.08
2023-03-04T06:34:38.968Z,72.25
2023-03-04T06:37:05.441Z,73.15
2023-03-04T06:39:32.795Z,73.58
2023-03-04T06:41:59.355Z,73.86
2023-03-04T06:44:25.771Z,73.28
2023-03-04T06:46:52.303Z,73.90
2023-03-04T06:49:18.807Z,73.77
2023-03-04T06:51:45.213Z,73.97
2023-03-04T06:54:11.688Z,73.61
2023-03-04T06:56:38.145Z,74.09
2023-03-04T06:59:04.794Z,73.58
2023-03-04T07:01:31.356Z,73.66
2023-03-04T07:03:58.410Z,72.84
2023-03-04T07:06:27.064Z,72.73
2023-03-04T07:08:54.021Z,72.50
2023-03-04T07:11:22.040Z,72.95
2023-03-04T07:13:49.430Z,72.31
2023-03-04T07:16:19.516Z,72.75
2023-03-04T07:18:47.130Z,72.57
2023-03-04T07:21:15.456Z,72.23
2023-03-04T07:23:42.211Z,72.85
2023-03-04T07:26:09.391Z,73.00
2023-03-04T07:28:36.918Z,73.75
2023-03-04T07:31:19.107Z,74.52
2023-03-04T07:33:45.565Z,74.93
2023-03-04T07:36:14.792Z,75.15
2023-03-04T07:38:46.756Z,75.16
2023-03-04T07:41:13.412Z,75.24
2023-03-04T07:43:39.869Z,75.07
2023-03-04T07:46:06.618Z,74.57
2023-03-04T07:48:33.226Z,74.15
2023-03-04T07:51:12.787Z,73.50
2023-03-04T07:53:41.462Z,73.65
2023-03-04T07:56:11.434Z,73.76
2023-03-04T07:58:38.415Z,73.24
2023-03-04T08:01:20.379Z,73.59
2023-03-04T08:03:47.216Z,73.51
2023-03-04T08:06:16.565Z,74.76
2023-03-04T08:08:43.762Z,91.08
2023-03-04T08:11:14.326Z,89.39
2023-03-04T08:13:41.090Z,84.92
2023-03-04T08:16:08.121Z,75.01
2023-03-04T08:18:34.968Z,73.87
2023-03-04T08:21:01.920Z,73.90
2023-03-04T08:23:28.365Z,74.06
2023-03-04T08:25:54.855Z,74.62
2023-03-04T08:28:21.887Z,74.67
2023-03-04T08:30:53.298Z,74.82
2023-03-04T08:33:19.984Z,74.81
2023-03-04T08:35:46.523Z,74.38
2023-03-04T08:38:12.987Z,74.60
2023-03-04T08:40:39.518Z,74.17
2023-03-04T08:43:05.995Z,74.16
2023-03-04T08:45:32.468Z,73.76
2023-03-04T08:47:58.888Z,74.02
2023-03-04T08:50:27.976Z,74.58
2023-03-04T08:52:54.597Z,74.66
2023-03-04T08:55:21.422Z,75.39
2023-03-04T08:57:47.902Z,75.03
2023-03-04T09:00:14.900Z,75.56
2023-03-04T09:02:41.357Z,75.09
2023-03-04T09:05:08.470Z,75.17
2023-03-04T09:07:34.972Z,75.85
2023-03-04T09:10:01.437Z,76.51
2023-03-04T09:12:28.011Z,76.96
2023-03-04T09:15:09.922Z,77.40
2023-03-04T09:17:37.910Z,77.39
2023-03-04T09:20:05.267Z,77.03
2023-03-04T09:22:31.990Z,75.96
2023-03-04T09:24:58.441Z,75.70
2023-03-04T09:27:25.012Z,75.78
2023-03-04T09:29:51.419Z,75.83
2023-03-04T09:32:18.045Z,75.42
2023-03-04T09:34:44.680Z,76.06
2023-03-04T09:37:11.544Z,75.88
2023-03-04T09:39:38.917Z,76.19
2023-03-04T09:42:07.582Z,76.86
2023-03-04T09:44:41.039Z,76.68
2023-03-04T09:47:13.687Z,76.13
2023-03-04T09:49:44.348Z,75.12
2023-03-04T09:52:32.852Z,74.79
2023-03-04T09:55:25.585Z,74.15
2023-03-04T09:58:00.527Z,74.05
2023-03-04T10:00:41.948Z,73.87
2023-03-04T10:03:09.772Z,73.37
2023-03-04T10:05:42.408Z,73.11
2023-03-04T10:08:25.689Z,72.63
2023-03-04T10:10:54.734Z,72.70
2023-03-04T10:13:32.221Z,72.07
2023-03-04T10:16:01.013Z,72.21
2023-03-04T10:18:34.128Z,72.23
2023-03-04T10:21:40.766Z,71.91
2023-03-04T10:24:18.112Z,71.05
2023-03-04T10:26:47.130Z,71.96
2023-03-04T10:29:17.340Z,70.85
2023-03-04T10:31:44.694Z,70.57
2023-03-04T10:34:15.573Z,70.01
2023-03-04T10:37:05.714Z,69.74
2023-03-04T10:39:35.960Z,69.63
2023-03-04T10:42:04.216Z,69.59
2023-03-04T10:44:33.735Z,68.97
2023-03-04T10:47:01.166Z,68.86
2023-03-04T10:49:29.259Z,68.86
2023-03-04T10:52:21.989Z,68.29
2023-03-04T10:54:54.810Z,68.00
2023-03-04T10:57:37.912Z,68.17
2023-03-04T11:00:26.246Z,68.77
2023-03-04T11:03:33.972Z,68.43
2023-03-04T11:06:28.836Z,68.30
2023-03-04T11:08:56.933Z,68.23
2023-03-04T11:11:46.649Z,67.46
2023-03-04T11:14:24.069Z,67.06
2023-03-04T11:16:59.840Z,66.96
2023-03-04T11:19:38.951Z,66.10
2023-03-04T11:22:06.229Z,66.61
2023-03-04T11:24:35.651Z,66.30
2023-03-04T11:27:38.335Z,66.51
2023-03-04T11:30:20.188Z,66.55
2023-03-04T11:32:51.661Z,65.87
2023-03-04T11:35:30.805Z,66.10
2023-03-04T11:38:17.435Z,65.50
2023-03-04T11:40:49.702Z,65.64
2023-03-04T11:43:21.928Z,65.49
2023-03-04T11:46:21.890Z,65.52
2023-03-04T11:49:14.567Z,65.00
2023-03-04T11:52:10.417Z,64.43
2023-03-04T11:55:05.016Z,63.90
2023-03-04T11:57:47.503Z,64.37
2023-03-04T12:00:20.413Z,65.11
2023-03-04T12:03:12.692Z,64.77
2023-03-04T12:06:04.081Z,65.02
2023-03-04T12:08:48.209Z,64.36
2023-03-04T12:11:28.123Z,63.84
2023-03-04T12:14:25.513Z,63.42
2023-03-04T12:17:11.874Z,63.28
2023-03-04T12:20:14.199Z,62.69
2023-03-04T12:23:06.834Z,62.54
2023-03-04T12:26:02.620Z,63.12
2023-03-04T12:28:31.917Z,64.57
2023-03-04T12:31:01.376Z,65.06
2023-03-04T12:33:44.512Z,64.84
2023-03-04T12:36:34.422Z,65.45
2023-03-04T12:39:07.537Z,64.72
2023-03-04T12:41:55.723Z,64.65
2023-03-04T12:44:23.185Z,64.30
2023-03-04T12:47:11.472Z,63.67
2023-03-04T12:49:56.821Z,63.51
2023-03-04T12:52:37.309Z,64.85
2023-03-04T12:55:10.336Z,64.72
2023-03-04T12:57:38.295Z,63.99
2023-03-04T13:00:26.670Z,63.94
2023-03-04T13:03:02.323Z,63.93
2023-03-04T13:05:50.437Z,64.16
2023-03-04T13:08:27.237Z,64.32
2023-03-04T13:10:53.996Z,64.42
2023-03-04T13:13:35.986Z,64.13
2023-03-04T13:16:11.578Z,64.24
2023-03-04T13:18:39.465Z,64.10
2023-03-04T13:21:08.005Z,65.17
2023-03-04T13:23:34.982Z,64.71
2023-03-04T13:26:35.480Z,64.91
2023-03-04T13:29:14.122Z,65.89
2023-03-04T13:32:10.804Z,67.07
2023-03-04T13:34:51.778Z,66.73
2023-03-04T13:37:33.456Z,66.22
2023-03-04T13:40:33.616Z,66.67
2023-03-04T13:43:25.982Z,66.76
2023-03-04T13:45:52.487Z,67.00
2023-03-04T13:48:36.346Z,67.45
2023-03-04T13:51:03.266Z,67.38
2023-03-04T13:53:31.243Z,66.71
2023-03-04T13:56:08.656Z,66.56
2023-03-04T13:58:35.958Z,67.24
2023-03-04T14:01:03.275Z,66.87
2023-03-04T14:03:31.722Z,66.17
2023-03-04T14:06:16.690Z,66.31
2023-03-04T14:08:43.446Z,66.35
2023-03-04T14:11:26.092Z,65.89
2023-03-04T14:13:54.427Z,66.52
2023-03-04T14:16:23.594Z,65.85
2023-03-04T14:19:01.961Z,65.69
2023-03-04T14:21:29.718Z,66.00
2023-03-04T14:24:00.892Z,65.35
2023-03-04T14:26:27.361Z,65.35
2023-03-04T14:28:57.345Z,64.96
2023-03-04T14:31:25.335Z,65.22
2023-03-04T14:34:01.803Z,64.37
2023-03-04T14:36:32.594Z,64.32
2023-03-04T14:39:02.413Z,64.31
2023-03-04T14:41:37.844Z,64.01
2023-03-04T14:44:23.991Z,63.40
2023-03-04T14:47:07.436Z,63.47
2023-03-04T14:49:37.562Z,63.18
2023-03-04T14:52:05.150Z,63.60
2023-03-04T14:54:43.580Z,62.72
2023-03-04T14:57:21.012Z,62.93
2023-03-04T14:59:47.905Z,63.06
2023-03-04T15:02:21.439Z,63.04
2023-03-04T15:04:49.331Z,63.24
2023-03-04T15:07:19.927Z,63.35
2023-03-04T15:09:54.802Z,62.90
2023-03-04T15:12:31.637Z,63.16
2023-03-04T15:15:00.408Z,63.12
2023-03-04T15:17:38.857Z,62.83
2023-03-04T15:20:08.961Z,62.27
2023-03-04T15:22:55.866Z,62.67
2023-03-04T15:25:23.013Z,62.65
2023-03-04T15:27:50.892Z,62.37
2023-03-04T15:30:30.177Z,62.83
2023-03-04T15:32:57.975Z,62.72
2023-03-04T15:35:27.351Z,62.51
2023-03-04T15:37:55.985Z,61.94
2023-03-04T15:40:25.659Z,61.79
2023-03-04T15:42:52.200Z,62.22
2023-03-04T15:45:29.024Z,62.02
2023-03-04T15:47:55.568Z,62.20
2023-03-04T15:50:22.435Z,61.89
2023-03-04T15:52:51.188Z,61.97
2023-03-04T15:55:19.536Z,62.15
2023-03-04T15:57:48.869Z,62.14
2023-03-04T16:00:16.922Z,62.45
2023-03-04T16:02:43.469Z,62.35
2023-03-04T16:05:10.773Z,62.13
2023-03-04T16:07:40.469Z,61.74
2023-03-04T16:10:16.009Z,61.92
2023-03-04T16:12:42.534Z,61.72
2023-03-04T16:15:19.285Z,62.26
2023-03-04T16:17:46.775Z,62.02
2023-03-04T16:20:16.049Z,62.13
2023-03-04T16:22:44.815Z,61.81
2023-03-04T16:25:16.287Z,61.77
2023-03-04T16:27:43.639Z,61.80
2023-03-04T16:30:16.239Z,61.64
2023-03-04T16:32:42.853Z,62.01
2023-03-04T16:35:10.176Z,61.81
2023-03-04T16:37:37.588Z,61.84
2023-03-04T16:40:05.435Z,61.90
2023-03-04T16:42:31.970Z,62.02
2023-03-04T16:44:58.528Z,62.05
2023-03-04T16:47:25.031Z,62.32
2023-03-04T16:49:52.018Z,62.31
2023-03-04T16:52:29.700Z,62.23
2023-03-04T16:54:56.312Z,62.49
2023-03-04T16:57:22.979Z,62.33
2023-03-04T16:59:50.010Z,62.36
2023-03-04T17:02:18.889Z,62.81
2023-03-04T17:04:46.736Z,62.45
2023-03-04T17:07:13.302Z,62.67
2023-03-04T17:09:40.657Z,62.77
2023-03-04T17:12:10.786Z,62.76
2023-03-04T17:14:38.070Z,62.67
2023-03-04T17:17:07.012Z,62.84
2023-03-04T17:19:33.550Z,62.88
2023-03-04T17:22:02.156Z,62.59
2023-03-04T17:24:30.588Z,62.74
2023-03-04T17:26:57.021Z,62.72
2023-03-04T17:29:23.488Z,62.95
2023-03-04T17:31:49.953Z,62.94
2023-03-04T17:34:18.346Z,62.95
2023-03-04T17:36:44.836Z,62.77
2023-03-04T17:39:11.953Z,62.88
2023-03-04T17:41:38.592Z,63.04
2023-03-04T17:44:05.889Z,62.94
2023-03-04T17:46:32.509Z,63.07
2023-03-04T17:48:59.688Z,63.02
2023-03-04T17:51:37.923Z,63.00
2023-03-04T17:54:06.516Z,63.39
2023-03-04T17:56:34.375Z,63.34
2023-03-04T17:59:03.050Z,63.84
2023-03-04T18:01:29.653Z,63.68
2023-03-04T18:03:56.340Z,65.07
2023-03-04T18:06:25.046Z,64.36
2023-03-04T18:08:53.095Z,64.79
2023-03-04T18:11:24.723Z,64.88
2023-03-04T18:13:51.606Z,64.89
2023-03-04T18:16:23.407Z,65.01
2023-03-04T18:18:50.958Z,64.69
2023-03-04T18:21:18.349Z,64.92
2023-03-04T18:23:45.823Z,65.03
2023-03-04T18:26:12.646Z,64.92
2023-03-04T18:28:39.852Z,64.79
2023-03-04T18:31:06.328Z,65.09
2023-03-04T18:33:34.089Z,65.43
2023-03-04T18:36:03.056Z,65.21
2023-03-04T18:38:29.997Z,65.57
2023-03-04T18:41:03.751Z,65.38
2023-03-04T18:43:30.237Z,65.46
2023-03-04T18:46:17.054Z,64.96
2023-03-04T18:48:46.614Z,64.81
2023-03-04T18:51:13.397Z,65.44
2023-03-04T18:53:39.835Z,65.70
2023-03-04T18:56:20.014Z,66.38
2023-03-04T18:58:49.307Z,66.43
2023-03-04T19:01:18.726Z,66.43
2023-03-04T19:03:46.581Z,67.31
2023-03-04T19:06:13.420Z,67.33
2023-03-04T19:08:39.857Z,67.37
2023-03-04T19:11:06.332Z,67.37
2023-03-04T19:13:33.021Z,67.41
2023-03-04T19:15:59.588Z,67.39
2023-03-04T19:18:28.681Z,67.34
2023-03-04T19:20:55.169Z,67.31
2023-03-04T19:23:21.642Z,67.10
2023-03-04T19:25:48.167Z,67.18
2023-03-04T19:28:14.844Z,66.98
2023-03-04T19:30:41.553Z,66.87
2023-03-04T19:33:08.266Z,66.86
2023-03-04T19:35:40.233Z,66.89
2023-03-04T19:38:06.776Z,66.85
2023-03-04T19:40:34.180Z,66.96
2023-03-04T19:43:01.508Z,67.36
2023-03-04T19:45:27.960Z,67.28
2023-03-04T19:47:54.814Z,67.18
2023-03-04T19:50:21.453Z,66.71
2023-03-04T19:52:47.921Z,66.90
2023-03-04T19:55:14.397Z,66.91
2023-03-04T19:57:43.076Z,67.12
2023-03-04T20:00:11.195Z,66.90
2023-03-04T20:02:37.915Z,66.62
2023-03-04T20:05:05.940Z,66.54
2023-03-04T20:07:32.354Z,66.86
2023-03-04T20:09:58.846Z,66.55
2023-03-04T20:12:25.685Z,67.50
2023-03-04T20:14:52.182Z,67.99
2023-03-04T20:17:18.918Z,67.98
2023-03-04T20:19:46.130Z,68.40
2023-03-04T20:22:13.360Z,68.81
2023-03-04T20:24:40.002Z,68.70
2023-03-04T20:27:06.727Z,68.81
2023-03-04T20:29:33.222Z,69.12
2023-03-04T20:32:00.006Z,69.37
2023-03-04T20:34:27.293Z,69.42
2023-03-04T20:36:53.718Z,69.38
2023-03-04T20:39:29.192Z,70.06
2023-03-04T20:41:58.411Z,69.39
2023-03-04T20:44:25.045Z,69.10
2023-03-04T20:46:51.596Z,68.70
2023-03-04T20:49:23.171Z,68.91
2023-03-04T20:51:54.868Z,69.20
2023-03-04T20:54:21.662Z,68.83
2023-03-04T20:56:48.265Z,68.58
2023-03-04T20:59:15.114Z,68.43
2023-03-04T21:01:43.861Z,67.86
2023-03-04T21:04:10.915Z,67.69
2023-03-04T21:06:39.100Z,68.30
2023-03-04T21:09:12.004Z,67.80
2023-03-04T21:11:41.896Z,68.50
2023-03-04T21:14:23.577Z,68.38
2023-03-04T21:16:53.302Z,68.01
2023-03-04T21:19:28.021Z,68.17
2023-03-04T21:21:55.541Z,68.31
2023-03-04T21:24:24.910Z,68.89
2023-03-04T21:26:52.551Z,68.87
2023-03-04T21:29:22.121Z,68.67
2023-03-04T21:32:23.259Z,67.60
2023-03-04T21:34:52.752Z,68.45
2023-03-04T21:37:24.149Z,69.46
2023-03-04T21:39:50.972Z,70.07
2023-03-04T21:42:17.562Z,69.80
2023-03-04T21:44:51.920Z,69.14
2023-03-04T21:47:20.143Z,69.82
2023-03-04T21:49:46.690Z,69.69
2023-03-04T21:52:13.483Z,70.36
2023-03-04T21:54:39.940Z,70.27
2023-03-04T21:57:06.471Z,69.67
2023-03-04T21:59:32.930Z,70.17
2023-03-04T22:01:59.578Z,70.30
2023-03-04T22:04:26.093Z,70.39
2023-03-04T22:06:52.585Z,70.05
2023-03-04T22:09:19.049Z,69.98
2023-03-04T22:11:45.567Z,69.82
2023-03-04T22:14:12.610Z,70.01
2023-03-04T22:16:54.068Z,70.28
2023-03-04T22:19:22.438Z,70.58
2023-03-04T22:21:48.877Z,70.55
2023-03-04T22:24:15.280Z,70.46
2023-03-04T22:26:41.709Z,70.56
2023-03-04T22:29:09.039Z,70.39
2023-03-04T22:31:37.952Z,69.77
2023-03-04T22:34:13.089Z,69.60
2023-03-04T22:36:43.166Z,69.09
2023-03-04T22:39:12.241Z,69.01
2023-03-04T22:41:38.955Z,68.32
2023-03-04T22:44:06.410Z,68.62
2023-03-04T22:46:34.741Z,68.55
2023-03-04T22:49:05.105Z,68.68
2023-03-04T22:51:32.300Z,69.67
2023-03-04T22:53:58.768Z,69.57
2023-03-04T22:56:25.397Z,69.15
2023-03-04T22:58:51.985Z,68.87
2023-03-04T23:01:19.717Z,69.77
2023-03-04T23:03:48.168Z,69.16
2023-03-04T23:06:16.030Z,68.58
2023-03-04T23:08:44.827Z,68.56
2023-03-04T23:11:15.148Z,68.10
2023-03-04T23:13:42.124Z,68.85
2023-03-04T23:16:11.739Z,68.59
2023-03-04T23:18:40.348Z,68.23
2023-03-04T23:21:12.615Z,68.42
2023-03-04T23:23:41.144Z,68.81
2023-03-04T23:26:18.160Z,69.42
2023-03-04T23:28:45.161Z,69.18
2023-03-04T23:31:14.639Z,69.75
2023-03-04T23:33:46.472Z,69.25
2023-03-04T23:36:15.652Z,69.43
2023-03-04T23:38:47.999Z,69.31
2023-03-04T23:41:17.146Z,69.32
2023-03-04T23:43:43.771Z,69.06
2023-03-04T23:46:14.000Z,69.25
2023-03-04T23:48:43.162Z,69.03
2023-03-04T23:51:10.319Z,68.97
2023-03-04T23:53:38.984Z,68.52
2023-03-04T23:56:13.809Z,68.45
2023-03-04T23:58:42.241Z,68.20
